createdAt,value
2022-10-31T00:00:41.105Z,10.3
2022-10-31T00:01:45.291Z,9.7
2022-10-31T00:02:49.856Z,9.4
2022-10-31T00:03:54.282Z,9.8
2022-10-31T00:04:58.739Z,9.3
2022-10-31T00:06:03.040Z,9.8
2022-10-31T00:07:07.506Z,9.7
2022-10-31T00:08:11.775Z,9.8
2022-10-31T00:09:16.219Z,10
2022-10-31T00:10:20.671Z,10.3
2022-10-31T00:11:24.802Z,10.3
2022-10-31T00:12:28.922Z,9.8
2022-10-31T00:13:33.008Z,9.9
2022-10-31T00:14:37.158Z,10.4
2022-10-31T00:15:41.683Z,10.3
2022-10-31T00:16:45.779Z,9.2
2022-10-31T00:17:49.835Z,10.3
2022-10-31T00:18:53.925Z,10.2
2022-10-31T00:19:58.059Z,10.1
2022-10-31T00:21:02.658Z,10.5
2022-10-31T00:22:06.726Z,9.9
2022-10-31T00:23:11.253Z,9.4
2022-10-31T00:24:15.349Z,10
2022-10-31T00:25:19.838Z,9.6
2022-10-31T00:26:24.079Z,10.5
2022-10-31T00:27:28.559Z,11.2
2022-10-31T00:28:32.640Z,9.8
2022-10-31T00:29:36.821Z,10.8
2022-10-31T00:30:41.299Z,9.9
2022-10-31T00:31:45.364Z,11.1
2022-10-31T00:32:49.630Z,10.9
2022-10-31T00:33:54.078Z,9.7
2022-10-31T00:34:58.179Z,9.7
2022-10-31T00:36:02.247Z,10.2
2022-10-31T00:37:06.938Z,10.6
2022-10-31T00:38:11.442Z,9.8
2022-10-31T00:39:15.543Z,10.2
2022-10-31T00:40:19.602Z,10.5
2022-10-31T00:41:23.658Z,10.4
2022-10-31T00:42:27.735Z,9.4
2022-10-31T00:43:31.866Z,10
2022-10-31T00:44:36.469Z,10.7
2022-10-31T00:45:40.924Z,10.5
2022-10-31T00:46:45.098Z,9.9
2022-10-31T00:47:49.640Z,10.2
2022-10-31T00:48:53.771Z,10.9
2022-10-31T00:49:57.815Z,10.2
2022-10-31T00:51:02.349Z,9.4
2022-10-31T00:52:06.566Z,9.8
2022-10-31T00:53:10.658Z,10.4
2022-10-31T00:54:15.229Z,9.1
2022-10-31T00:55:19.873Z,9.2
2022-10-31T00:56:24.396Z,9.5
2022-10-31T00:57:28.955Z,10.3
2022-10-31T00:58:33.551Z,9.3
2022-10-31T00:59:38.262Z,9.2
2022-10-31T01:00:44.487Z,9.2
2022-10-31T01:01:47.368Z,10.8
2022-10-31T01:02:51.401Z,10.1
2022-10-31T01:03:55.914Z,9.3
2022-10-31T01:05:00.050Z,8.9
2022-10-31T01:06:04.605Z,9.9
2022-10-31T01:07:08.681Z,8.8
2022-10-31T01:08:12.731Z,9.5
2022-10-31T01:09:17.266Z,9.3
2022-10-31T01:10:21.431Z,10.3
2022-10-31T01:11:25.930Z,10.3
2022-10-31T01:12:29.931Z,9.4
2022-10-31T01:13:42.157Z,10.2
2022-10-31T01:14:46.358Z,9.7
2022-10-31T01:15:50.903Z,9.1
2022-10-31T01:16:55.401Z,9.4
2022-10-31T01:17:59.784Z,9.8
2022-10-31T01:19:04.114Z,10.2
2022-10-31T01:20:08.611Z,9.9
2022-10-31T01:21:12.865Z,9.5
2022-10-31T01:22:19.834Z,9.1
2022-10-31T01:23:24.087Z,9.2
2022-10-31T01:24:28.494Z,9.5
2022-10-31T01:25:32.534Z,9.8
2022-10-31T01:26:36.661Z,9.7
2022-10-31T01:27:41.314Z,10.2
2022-10-31T01:28:45.930Z,8.6
2022-10-31T01:29:50.241Z,9.1
2022-10-31T01:30:54.573Z,8.8
2022-10-31T01:32:01.558Z,8.4
2022-10-31T01:33:05.663Z,9.3
2022-10-31T01:34:10.199Z,10
2022-10-31T01:35:14.323Z,8.9
2022-10-31T01:36:18.379Z,8.9
2022-10-31T01:37:27.977Z,10
2022-10-31T01:38:32.054Z,8.2
2022-10-31T01:39:36.237Z,9.9
2022-10-31T01:40:40.706Z,9.1
2022-10-31T01:41:44.809Z,9.7
2022-10-31T01:42:49.347Z,8.4
2022-10-31T01:43:53.331Z,9.4
2022-10-31T01:44:57.515Z,9.4
2022-10-31T01:46:01.566Z,9.4
2022-10-31T01:47:05.717Z,9.6
2022-10-31T01:48:12.863Z,9.7
2022-10-31T01:49:16.886Z,9.2
2022-10-31T01:50:26.570Z,8.3
2022-10-31T01:51:33.606Z,9.1
2022-10-31T01:52:37.642Z,8.9
2022-10-31T01:53:44.750Z,9.2
2022-10-31T01:54:48.872Z,10
2022-10-31T01:55:52.847Z,9
2022-10-31T01:56:57.146Z,8.3
2022-10-31T01:58:01.675Z,9.4
2022-10-31T01:59:08.162Z,8.4
2022-10-31T02:00:12.362Z,8.8
2022-10-31T02:01:17.014Z,8.9
2022-10-31T02:02:21.079Z,8.5
2022-10-31T02:03:24.994Z,9.4
2022-10-31T02:04:29.161Z,8.5
2022-10-31T02:05:33.169Z,8.6
2022-10-31T02:06:37.209Z,9.6
2022-10-31T02:07:49.467Z,8.8
2022-10-31T02:08:53.620Z,9.1
2022-10-31T02:09:58.209Z,9.8
2022-10-31T02:11:02.742Z,8.5
2022-10-31T02:12:06.866Z,8.8
2022-10-31T02:13:11.422Z,8.9
2022-10-31T02:14:15.531Z,8.6
2022-10-31T02:15:19.447Z,8.2
2022-10-31T02:16:24.085Z,8.3
2022-10-31T02:17:28.177Z,9.8
2022-10-31T02:18:32.313Z,8
2022-10-31T02:19:36.861Z,7.9
2022-10-31T02:20:51.543Z,8.3
2022-10-31T02:22:06.390Z,7.7
2022-10-31T02:23:13.498Z,8.6
2022-10-31T02:24:25.685Z,9.2
2022-10-31T02:25:40.390Z,9
2022-10-31T02:26:47.634Z,9
2022-10-31T02:28:02.761Z,8.9
2022-10-31T02:29:16.627Z,8.5
2022-10-31T02:30:28.754Z,7.8
2022-10-31T02:31:37.851Z,8.3
2022-10-31T02:32:52.676Z,8.2
2022-10-31T02:34:02.439Z,7.7
2022-10-31T02:35:12.070Z,7.9
2022-10-31T02:36:26.682Z,8
2022-10-31T02:37:35.938Z,8.5
2022-10-31T02:38:48.157Z,9
2022-10-31T02:40:00.390Z,8.8
2022-10-31T02:41:09.562Z,7.9
2022-10-31T02:42:16.705Z,7.6
2022-10-31T02:43:21.326Z,8.8
2022-10-31T02:44:28.343Z,7.8
2022-10-31T02:45:43.053Z,7.6
2022-10-31T02:46:52.727Z,7.7
2022-10-31T02:48:03.014Z,7.5
2022-10-31T02:49:10.037Z,7.7
2022-10-31T02:50:19.391Z,8.2
2022-10-31T02:51:23.759Z,8.3
2022-10-31T02:52:27.869Z,8.4
2022-10-31T02:53:31.879Z,7.6
2022-10-31T02:54:36.017Z,8.3
2022-10-31T02:55:40.465Z,7.8
2022-10-31T02:56:54.923Z,7.6
2022-10-31T02:57:59.417Z,7.4
2022-10-31T02:59:06.194Z,7.7
2022-10-31T03:00:10.834Z,7.5
2022-10-31T03:01:15.469Z,7.1
2022-10-31T03:02:30.135Z,7.9
2022-10-31T03:03:42.154Z,8
2022-10-31T03:04:49.301Z,9
2022-10-31T03:06:01.505Z,7.2
2022-10-31T03:07:11.137Z,7.3
2022-10-31T03:08:20.713Z,8.7
2022-10-31T03:09:24.953Z,7.9
2022-10-31T03:10:35.085Z,7.3
2022-10-31T03:11:42.225Z,7.5
2022-10-31T03:12:48.585Z,7.6
2022-10-31T03:13:50.689Z,7.4
2022-10-31T03:15:02.965Z,8
2022-10-31T03:16:12.602Z,8.6
2022-10-31T03:17:21.861Z,8.4
2022-10-31T03:18:31.973Z,7.8
2022-10-31T03:19:36.177Z,7.4
2022-10-31T03:20:40.815Z,7.6
2022-10-31T03:21:47.876Z,7.8
2022-10-31T03:23:02.506Z,7.9
2022-10-31T03:24:06.618Z,8.2
2022-10-31T03:25:10.788Z,7.4
2022-10-31T03:26:15.317Z,8.4
2022-10-31T03:27:19.954Z,7.4
2022-10-31T03:28:24.401Z,7.7
2022-10-31T03:29:28.527Z,7.9
2022-10-31T03:30:32.550Z,8.2
2022-10-31T03:31:36.657Z,8.3
2022-10-31T03:32:46.793Z,8.7
2022-10-31T03:33:50.826Z,8.4
2022-10-31T03:34:55.001Z,7.5
2022-10-31T03:35:59.117Z,7.4
2022-10-31T03:37:03.642Z,7.8
2022-10-31T03:38:08.020Z,8.9
2022-10-31T03:39:11.742Z,8.1
2022-10-31T03:40:15.885Z,7.6
2022-10-31T03:41:20.375Z,7.9
2022-10-31T03:42:24.542Z,7.3
2022-10-31T03:43:29.071Z,7.8
2022-10-31T03:44:33.146Z,8.2
2022-10-31T03:45:37.321Z,7.3
2022-10-31T03:46:41.847Z,7.5
2022-10-31T03:47:45.992Z,7.9
2022-10-31T03:48:50.453Z,7.9
2022-10-31T03:49:54.532Z,8.9
2022-10-31T03:50:58.830Z,8
2022-10-31T03:52:11.341Z,9.3
2022-10-31T03:53:23.620Z,8.5
2022-10-31T03:54:28.146Z,8.3
2022-10-31T03:55:35.405Z,8.7
2022-10-31T03:56:47.481Z,9
2022-10-31T03:57:51.570Z,7.8
2022-10-31T03:58:55.699Z,7.9
2022-10-31T04:00:05.293Z,7.7
2022-10-31T04:01:09.966Z,7.5
2022-10-31T04:02:14.025Z,7.6
2022-10-31T04:03:18.051Z,9
2022-10-31T04:04:27.702Z,9.5
2022-10-31T04:05:31.817Z,8.3
2022-10-31T04:06:35.876Z,8.1
2022-10-31T04:07:39.952Z,8.4
2022-10-31T04:08:44.045Z,8.2
2022-10-31T04:09:53.870Z,8.8
2022-10-31T04:10:58.261Z,9.2
2022-10-31T04:12:02.357Z,9.3
2022-10-31T04:13:07.136Z,9.2
2022-10-31T04:14:11.573Z,8.8
2022-10-31T04:15:16.142Z,9.2
2022-10-31T04:16:20.591Z,8.8
2022-10-31T04:17:24.757Z,10.1
2022-10-31T04:18:29.333Z,9.3
2022-10-31T04:19:33.829Z,8.8
2022-10-31T04:20:37.953Z,8.9
2022-10-31T04:21:42.509Z,9.2
2022-10-31T04:22:46.558Z,9.1
2022-10-31T04:23:50.689Z,10
2022-10-31T04:24:55.178Z,10
2022-10-31T04:25:59.245Z,10.3
2022-10-31T04:27:03.373Z,10.3
2022-10-31T04:28:08.082Z,10.3
2022-10-31T04:29:12.571Z,10.7
2022-10-31T04:30:17.169Z,10.3
2022-10-31T04:31:21.733Z,10
2022-10-31T04:32:26.258Z,9.9
2022-10-31T04:33:31.193Z,9.9
2022-10-31T04:34:35.449Z,10.5
2022-10-31T04:35:40.001Z,10.5
2022-10-31T04:36:44.002Z,10.5
2022-10-31T04:37:48.155Z,11.1
2022-10-31T04:38:52.217Z,10.4
2022-10-31T04:39:56.829Z,11.5
2022-10-31T04:41:01.324Z,11.7
2022-10-31T04:42:05.974Z,11.4
2022-10-31T04:43:10.568Z,11
2022-10-31T04:44:14.529Z,10.8
2022-10-31T04:45:20.267Z,10.9
2022-10-31T04:46:23.203Z,11.8
2022-10-31T04:47:27.675Z,11.6
2022-10-31T04:48:31.782Z,12.1
2022-10-31T04:49:35.891Z,10.3
2022-10-31T04:50:40.490Z,9.9
2022-10-31T04:51:44.525Z,10.3
2022-10-31T04:52:49.249Z,11.5
2022-10-31T04:53:53.696Z,10.9
2022-10-31T04:54:57.789Z,10.3
2022-10-31T04:56:01.893Z,10.2
2022-10-31T04:57:06.540Z,10.3
2022-10-31T04:58:10.641Z,10.8
2022-10-31T04:59:15.179Z,11.3
2022-10-31T05:00:19.673Z,11.5
2022-10-31T05:01:23.907Z,10.2
2022-10-31T05:02:27.807Z,10.2
2022-10-31T05:03:31.897Z,9.9
2022-10-31T05:04:35.965Z,9.8
2022-10-31T05:05:39.982Z,10.8
2022-10-31T05:06:44.077Z,9.7
2022-10-31T05:07:48.248Z,10.9
2022-10-31T05:08:52.722Z,10.9
2022-10-31T05:09:56.871Z,11.2
2022-10-31T05:11:03.193Z,10.9
2022-10-31T05:12:05.496Z,12.2
2022-10-31T05:13:09.704Z,12.1
2022-10-31T05:14:14.299Z,11.4
2022-10-31T05:15:18.793Z,11.5
2022-10-31T05:16:23.232Z,10.4
2022-10-31T05:17:27.405Z,10.3
2022-10-31T05:18:31.989Z,10.5
2022-10-31T05:19:35.989Z,11.9
2022-10-31T05:20:40.074Z,11.6
2022-10-31T05:21:44.123Z,11.3
2022-10-31T05:22:48.290Z,11.2
2022-10-31T05:23:52.437Z,11.3
2022-10-31T05:24:56.989Z,11.7
2022-10-31T05:26:01.580Z,12.3
2022-10-31T05:27:06.069Z,12.4
2022-10-31T05:28:10.133Z,11.1
2022-10-31T05:29:14.232Z,11.3
2022-10-31T05:30:18.353Z,10.4
2022-10-31T05:31:22.418Z,11.4
2022-10-31T05:32:26.421Z,12.1
2022-10-31T05:33:30.509Z,11.3
2022-10-31T05:34:34.693Z,11.3
2022-10-31T05:35:38.659Z,12.2
2022-10-31T05:36:42.748Z,12.1
2022-10-31T05:37:46.865Z,11.9
2022-10-31T05:38:51.017Z,12
2022-10-31T05:39:55.569Z,11
2022-10-31T05:41:00.045Z,11.1
2022-10-31T05:42:04.218Z,11.2
2022-10-31T05:43:08.224Z,11
2022-10-31T05:44:12.418Z,11.7
2022-10-31T05:45:16.533Z,12.6
2022-10-31T05:46:21.040Z,12.3
2022-10-31T05:47:25.070Z,11.1
2022-10-31T05:48:29.572Z,12.8
2022-10-31T05:49:33.700Z,11
2022-10-31T05:50:37.736Z,11.9
2022-10-31T05:51:41.875Z,12.6
2022-10-31T05:52:45.985Z,11.9
2022-10-31T05:53:55.629Z,11
2022-10-31T05:55:00.286Z,11.5
2022-10-31T05:56:04.630Z,11.7
2022-10-31T05:57:08.809Z,12.2
2022-10-31T05:58:12.907Z,12.5
2022-10-31T05:59:16.977Z,12.2
2022-10-31T06:00:21.594Z,11.9
2022-10-31T06:01:26.064Z,10.9
2022-10-31T06:02:30.149Z,10.9
2022-10-31T06:03:34.270Z,11.3
2022-10-31T06:04:38.343Z,11
2022-10-31T06:05:42.737Z,11.1
2022-10-31T06:06:47.174Z,12
2022-10-31T06:07:51.614Z,10.7
2022-10-31T06:08:55.944Z,11.8
2022-10-31T06:10:00.200Z,11.9
2022-10-31T06:11:04.178Z,11.1
2022-10-31T06:12:08.442Z,11.8
2022-10-31T06:13:13.042Z,11.8
2022-10-31T06:14:17.083Z,12.3
2022-10-31T06:15:24.013Z,12.6
2022-10-31T06:16:25.252Z,12.7
2022-10-31T06:17:29.779Z,11.5
2022-10-31T06:18:33.884Z,12.2
2022-10-31T06:19:38.106Z,11.3
2022-10-31T06:20:42.158Z,14.4
2022-10-31T06:21:46.677Z,12.2
2022-10-31T06:22:50.660Z,12
2022-10-31T06:23:54.861Z,11.7
2022-10-31T06:24:59.317Z,12.1
2022-10-31T06:26:03.475Z,11.2
2022-10-31T06:27:07.590Z,11.4
2022-10-31T06:28:11.617Z,11.2
2022-10-31T06:29:15.784Z,11.9
2022-10-31T06:30:20.061Z,11.2
2022-10-31T06:31:24.611Z,11.7
2022-10-31T06:32:29.117Z,10.8
2022-10-31T06:33:33.734Z,11.1
2022-10-31T06:34:38.344Z,11.9
2022-10-31T06:35:42.956Z,10.7
2022-10-31T06:36:47.305Z,11.3
2022-10-31T06:37:51.943Z,11.2
2022-10-31T06:38:55.957Z,11.1
2022-10-31T06:39:59.985Z,11
2022-10-31T06:41:04.705Z,11.9
2022-10-31T06:42:08.757Z,11.5
2022-10-31T06:43:13.328Z,11.1
2022-10-31T06:44:17.422Z,11.8
2022-10-31T06:45:22.005Z,11.5
2022-10-31T06:46:26.544Z,11.1
2022-10-31T06:47:30.545Z,11.4
2022-10-31T06:48:34.630Z,10.9
2022-10-31T06:49:38.748Z,11.2
2022-10-31T06:50:43.333Z,10.3
2022-10-31T06:51:47.442Z,10.9
2022-10-31T06:52:52.169Z,10.3
2022-10-31T06:53:56.514Z,10.7
2022-10-31T06:55:00.597Z,11.6
2022-10-31T06:56:05.318Z,10.8
2022-10-31T06:57:09.777Z,10.5
2022-10-31T06:58:14.392Z,10.3
2022-10-31T06:59:18.560Z,11.2
2022-10-31T07:00:23.017Z,11.4
2022-10-31T07:01:27.236Z,11.4
2022-10-31T07:02:31.824Z,10.9
2022-10-31T07:03:36.397Z,10.6
2022-10-31T07:04:41.072Z,10.8
2022-10-31T07:05:45.572Z,11.7
2022-10-31T07:06:51.904Z,10.3
2022-10-31T07:07:54.326Z,10.8
2022-10-31T07:08:58.721Z,11
2022-10-31T07:10:03.185Z,11.4
2022-10-31T07:11:07.472Z,11.2
2022-10-31T07:12:11.566Z,11.3
2022-10-31T07:13:16.142Z,11.5
2022-10-31T07:14:20.120Z,11.5
2022-10-31T07:15:24.193Z,11.9
2022-10-31T07:16:28.688Z,11.9
2022-10-31T07:17:32.903Z,10.8
2022-10-31T07:18:37.042Z,11.6
2022-10-31T07:19:41.580Z,10.2
2022-10-31T07:20:46.224Z,11.1
2022-10-31T07:21:50.720Z,10
2022-10-31T07:22:54.721Z,11.1
2022-10-31T07:23:58.900Z,11.1
2022-10-31T07:25:03.476Z,11.1
2022-10-31T07:26:08.008Z,10.8
2022-10-31T07:27:12.133Z,10.5
2022-10-31T07:28:16.308Z,10.8
2022-10-31T07:29:20.853Z,10.9
2022-10-31T07:30:25.432Z,11.5
2022-10-31T07:31:30.048Z,11.9
2022-10-31T07:32:34.545Z,11
2022-10-31T07:33:41.772Z,12.1
2022-10-31T07:34:47.373Z,11.1
2022-10-31T07:35:51.275Z,11.9
2022-10-31T07:36:55.376Z,11.7
2022-10-31T07:37:59.815Z,11.8
2022-10-31T07:39:11.641Z,11.7
2022-10-31T07:40:15.764Z,11.7
2022-10-31T07:41:20.001Z,10.8
2022-10-31T07:42:24.373Z,10.7
2022-10-31T07:43:28.557Z,11.1
2022-10-31T07:44:33.006Z,12.2
2022-10-31T07:45:37.316Z,12.5
2022-10-31T07:46:41.798Z,12.2
2022-10-31T07:47:45.788Z,12.5
2022-10-31T07:48:49.850Z,12.6
2022-10-31T07:49:54.021Z,12.4
2022-10-31T07:50:58.176Z,12.2
2022-10-31T07:52:02.704Z,13.4
2022-10-31T07:53:06.948Z,11.7
2022-10-31T07:54:11.576Z,12.5
2022-10-31T07:55:16.715Z,11.4
2022-10-31T07:56:20.964Z,11.8
2022-10-31T07:57:25.591Z,11.4
2022-10-31T07:58:29.724Z,12.1
2022-10-31T07:59:34.200Z,11.9
2022-10-31T08:00:38.387Z,13
2022-10-31T08:01:43.320Z,11.7
2022-10-31T08:02:47.426Z,12.1
2022-10-31T08:03:59.844Z,12.3
2022-10-31T08:05:04.397Z,13.9
2022-10-31T08:06:08.798Z,12.5
2022-10-31T08:07:13.336Z,12.3
2022-10-31T08:08:17.669Z,13.2
2022-10-31T08:09:22.033Z,13.4
2022-10-31T08:10:26.135Z,12.8
2022-10-31T08:11:30.428Z,12.6
2022-10-31T08:12:34.849Z,13
2022-10-31T08:13:38.964Z,13.8
2022-10-31T08:14:43.404Z,14.3
2022-10-31T08:15:47.548Z,13.1
2022-10-31T08:16:52.280Z,13.1
2022-10-31T08:17:56.717Z,13.1
2022-10-31T08:19:00.769Z,11.8
2022-10-31T08:20:04.948Z,12.1
2022-10-31T08:21:09.441Z,12.4
2022-10-31T08:22:13.490Z,13.3
2022-10-31T08:23:17.723Z,13.9
2022-10-31T08:24:22.204Z,13.2
2022-10-31T08:25:26.728Z,14.3
2022-10-31T08:26:30.846Z,13.4
2022-10-31T08:27:34.852Z,14.5
2022-10-31T08:28:38.924Z,13.3
2022-10-31T08:29:43.044Z,14
2022-10-31T08:30:47.140Z,13.7
2022-10-31T08:31:51.229Z,13
2022-10-31T08:32:55.328Z,14.2
2022-10-31T08:34:02.965Z,15
2022-10-31T08:35:07.376Z,14
2022-10-31T08:36:11.585Z,14.3
2022-10-31T08:37:15.670Z,14.1
2022-10-31T08:38:20.357Z,14.2
2022-10-31T08:39:24.904Z,14.8
2022-10-31T08:40:29.342Z,15.6
2022-10-31T08:41:33.461Z,14.1
2022-10-31T08:42:37.518Z,14.6
2022-10-31T08:43:41.665Z,15
2022-10-31T08:44:46.361Z,13.4
2022-10-31T08:45:50.940Z,14.3
2022-10-31T08:46:55.480Z,13.4
2022-10-31T08:48:00.339Z,13.8
2022-10-31T08:49:04.676Z,13.4
2022-10-31T08:50:08.744Z,12.6
2022-10-31T08:51:13.316Z,12.9
2022-10-31T08:52:17.448Z,13
2022-10-31T08:53:21.940Z,14.3
2022-10-31T08:54:26.489Z,14.6
2022-10-31T08:55:31.164Z,13.5
2022-10-31T08:56:35.680Z,12.7
2022-10-31T08:57:40.180Z,13.7
2022-10-31T08:58:44.397Z,14.2
2022-10-31T08:59:49.004Z,14.4
2022-10-31T09:00:53.609Z,14.1
2022-10-31T09:02:00.835Z,13.1
2022-10-31T09:03:05.212Z,14
2022-10-31T09:04:14.977Z,12.7
2022-10-31T09:05:19.601Z,13
2022-10-31T09:06:24.252Z,13
2022-10-31T09:07:28.589Z,14
2022-10-31T09:08:32.834Z,13.3
2022-10-31T09:09:37.475Z,13.5
2022-10-31T09:10:41.932Z,13.2
2022-10-31T09:11:46.503Z,12.3
2022-10-31T09:12:50.541Z,13.8
2022-10-31T09:14:00.152Z,13.7
2022-10-31T09:15:04.240Z,12.9
2022-10-31T09:16:08.896Z,12.7
2022-10-31T09:17:12.945Z,12.8
2022-10-31T09:18:17.715Z,13.9
2022-10-31T09:19:22.147Z,14.2
2022-10-31T09:20:26.804Z,15.4
2022-10-31T09:21:31.704Z,14.3
2022-10-31T09:22:37.091Z,13.4
2022-10-31T09:23:42.036Z,13.6
2022-10-31T09:24:46.964Z,12.8
2022-10-31T09:25:51.376Z,12.4
2022-10-31T09:26:55.872Z,13.6
2022-10-31T09:28:00.655Z,14
2022-10-31T09:29:05.089Z,12.8
2022-10-31T09:30:09.452Z,13.3
2022-10-31T09:31:13.728Z,12.6
2022-10-31T09:32:18.413Z,14.1
2022-10-31T09:33:22.905Z,13.3
2022-10-31T09:34:27.515Z,12.3
2022-10-31T09:35:32.129Z,11.9
2022-10-31T09:36:36.710Z,13.5
2022-10-31T09:37:41.308Z,13.2
2022-10-31T09:38:45.820Z,13.7
2022-10-31T09:39:50.284Z,13.1
2022-10-31T09:40:54.501Z,13.3
2022-10-31T09:42:06.813Z,12.9
2022-10-31T09:43:16.355Z,13.5
2022-10-31T09:44:26.588Z,14.1
2022-10-31T09:45:41.275Z,14.9
2022-10-31T09:46:45.805Z,14.5
2022-10-31T09:48:00.919Z,14.4
2022-10-31T09:49:12.863Z,14.3
2022-10-31T09:50:27.504Z,14.3
2022-10-31T09:51:42.353Z,14.5
2022-10-31T09:52:46.443Z,14.4
2022-10-31T09:53:53.523Z,14.6
2022-10-31T09:55:08.352Z,14.7
2022-10-31T09:56:18.572Z,14.6
2022-10-31T09:57:23.028Z,14.8
2022-10-31T09:58:27.164Z,17
2022-10-31T09:59:31.265Z,16.7
2022-10-31T10:00:35.845Z,17.4
2022-10-31T10:01:40.024Z,17.8
2022-10-31T10:02:46.972Z,17.1
2022-10-31T10:03:51.596Z,17.9
2022-10-31T10:04:56.163Z,18.2
2022-10-31T10:06:06.337Z,18.5
2022-10-31T10:07:19.087Z,18.7
2022-10-31T10:08:32.089Z,18.8
2022-10-31T10:09:36.592Z,18.2
2022-10-31T10:10:40.904Z,18.9
2022-10-31T10:11:53.116Z,19
2022-10-31T10:13:03.642Z,18.6
2022-10-31T10:14:06.819Z,19
2022-10-31T10:15:21.551Z,19.7
2022-10-31T10:16:31.144Z,17.1
2022-10-31T10:17:37.752Z,17.8
2022-10-31T10:18:49.999Z,18.4
2022-10-31T10:20:04.732Z,18.2
2022-10-31T10:21:19.515Z,17.5
2022-10-31T10:22:29.176Z,18.7
2022-10-31T10:23:33.220Z,17.7
2022-10-31T10:24:45.483Z,17.2
2022-10-31T10:25:55.149Z,16.6
2022-10-31T10:26:59.342Z,16.6
2022-10-31T10:28:11.596Z,17
2022-10-31T10:29:18.624Z,17.2
2022-10-31T10:30:29.264Z,18.1
2022-10-31T10:31:33.376Z,17
2022-10-31T10:32:37.379Z,16.1
2022-10-31T10:33:46.571Z,15
2022-10-31T10:35:01.304Z,15.3
2022-10-31T10:36:15.768Z,17.2
2022-10-31T10:37:20.683Z,16
2022-10-31T10:38:27.828Z,16
2022-10-31T10:39:42.643Z,15.7
2022-10-31T10:40:47.190Z,16.3
2022-10-31T10:41:51.484Z,16.5
2022-10-31T10:43:00.860Z,17.3
2022-10-31T10:44:15.723Z,16
2022-10-31T10:45:20.279Z,16.6
2022-10-31T10:46:29.856Z,16.5
2022-10-31T10:47:42.120Z,16.4
2022-10-31T10:48:46.706Z,16.8
2022-10-31T10:49:56.363Z,16.4
2022-10-31T10:51:00.646Z,16.3
2022-10-31T10:52:39.547Z,16.1
2022-10-31T10:53:14.704Z,17.9
2022-10-31T10:54:27.123Z,16.4
2022-10-31T10:55:41.635Z,16.5
2022-10-31T10:56:51.480Z,17.8
2022-10-31T10:57:55.805Z,18.5
2022-10-31T10:58:59.991Z,17.3
2022-10-31T11:00:04.680Z,17
2022-10-31T11:02:18.373Z,16
2022-10-31T11:03:25.392Z,16
2022-10-31T11:04:29.447Z,17.3
2022-10-31T11:05:36.640Z,17.3
2022-10-31T11:06:40.656Z,16.6
2022-10-31T11:07:44.728Z,16.2
2022-10-31T11:08:48.999Z,17.3
2022-10-31T11:09:53.480Z,17.1
2022-10-31T11:10:57.681Z,16.6
2022-10-31T11:12:10.375Z,17.2
2022-10-31T11:13:17.447Z,16.8
2022-10-31T11:14:24.503Z,17
2022-10-31T11:15:29.364Z,16.5
2022-10-31T11:16:38.195Z,16.3
2022-10-31T11:17:37.695Z,15.7
2022-10-31T11:18:41.888Z,17.1
2022-10-31T11:19:46.444Z,17
2022-10-31T11:20:50.996Z,16.9
2022-10-31T11:21:55.731Z,17.6
2022-10-31T11:23:08.212Z,18
2022-10-31T11:24:20.590Z,16.7
2022-10-31T11:25:25.088Z,17.4
2022-10-31T11:26:29.167Z,15
2022-10-31T11:27:33.820Z,14.8
2022-10-31T11:28:37.984Z,15.4
2022-10-31T11:29:42.523Z,16.3
2022-10-31T11:30:47.082Z,16.6
2022-10-31T11:31:59.199Z,15
2022-10-31T11:33:03.582Z,16.2
2022-10-31T11:34:07.427Z,15.8
2022-10-31T11:35:14.551Z,16
2022-10-31T11:36:18.707Z,14.7
2022-10-31T11:37:22.803Z,14.1
2022-10-31T11:38:32.300Z,10.8
2022-10-31T11:39:36.385Z,9.8
2022-10-31T11:40:40.495Z,10.3
2022-10-31T11:41:44.640Z,9.6
2022-10-31T11:42:48.887Z,9.6
2022-10-31T11:43:53.349Z,9.4
2022-10-31T11:44:57.420Z,9.7
2022-10-31T11:46:01.611Z,10
2022-10-31T11:47:11.196Z,10.8
2022-10-31T11:48:15.779Z,10.3
2022-10-31T11:49:20.276Z,10.1
2022-10-31T11:50:29.567Z,11.3
2022-10-31T11:51:36.659Z,11.4
2022-10-31T11:52:40.898Z,11.1
2022-10-31T11:53:45.324Z,11
2022-10-31T11:54:52.515Z,11.1
2022-10-31T11:55:59.763Z,11.3
2022-10-31T11:57:07.297Z,10.9
2022-10-31T11:58:17.110Z,10.8
2022-10-31T11:59:21.468Z,11.6
2022-10-31T12:01:33.514Z,11.3
2022-10-31T12:02:37.411Z,11
2022-10-31T12:03:42.059Z,11.6
2022-10-31T12:04:46.607Z,11.6
2022-10-31T12:05:58.779Z,11
2022-10-31T12:07:13.557Z,11.6
2022-10-31T12:08:17.707Z,11.9
2022-10-31T12:09:22.467Z,11.3
2022-10-31T12:10:29.908Z,11.5
2022-10-31T12:11:39.986Z,11.6
2022-10-31T12:12:47.059Z,10.8
2022-10-31T12:13:59.839Z,11.2
2022-10-31T12:15:00.968Z,11.2
2022-10-31T12:16:13.074Z,11.4
2022-10-31T12:17:20.283Z,10.8
2022-10-31T12:18:27.351Z,11
2022-10-31T12:19:34.883Z,10.1
2022-10-31T12:20:47.271Z,11.4
2022-10-31T12:21:59.456Z,10.1
2022-10-31T12:23:06.552Z,9.8
2022-10-31T12:24:15.943Z,10.7
2022-10-31T12:25:25.402Z,10.6
2022-10-31T12:26:34.527Z,11.3
2022-10-31T12:27:43.753Z,10.7
2022-10-31T12:28:55.316Z,10.8
2022-10-31T12:30:00.177Z,11.1
2022-10-31T12:31:09.709Z,10.5
2022-10-31T12:32:24.078Z,10.8
2022-10-31T12:33:28.531Z,10.2
2022-10-31T12:34:37.731Z,10.8
2022-10-31T12:35:52.091Z,10.1
2022-10-31T12:37:01.775Z,9.6
2022-10-31T12:38:11.395Z,9.9
2022-10-31T12:39:26.148Z,10.2
2022-10-31T12:40:41.020Z,9.5
2022-10-31T12:41:51.090Z,10.5
2022-10-31T12:43:05.886Z,10.2
2022-10-31T12:44:20.539Z,9.9
2022-10-31T12:45:35.286Z,9.6
2022-10-31T12:46:49.726Z,9.7
2022-10-31T12:48:04.358Z,9.8
2022-10-31T12:49:11.508Z,9.8
2022-10-31T12:50:18.631Z,9.7
2022-10-31T12:51:28.277Z,10.2
2022-10-31T12:52:40.123Z,9.9
2022-10-31T12:53:49.738Z,9.5
2022-10-31T12:55:04.478Z,10.5
2022-10-31T12:56:19.239Z,10.5
2022-10-31T12:57:23.631Z,10.6
2022-10-31T12:58:38.139Z,10.3
2022-10-31T12:59:50.250Z,10.7
2022-10-31T13:00:59.638Z,9.8
2022-10-31T13:02:09.164Z,10.5
2022-10-31T13:03:18.362Z,10.5
2022-10-31T13:04:25.425Z,9.9
2022-10-31T13:05:38.194Z,10.5
2022-10-31T13:06:44.820Z,10
2022-10-31T13:07:52.452Z,9.4
2022-10-31T13:09:07.198Z,9.9
2022-10-31T13:10:19.526Z,10.5
2022-10-31T13:11:34.156Z,10.1
2022-10-31T13:12:46.979Z,10.8
2022-10-31T13:13:51.454Z,10.4
2022-10-31T13:15:06.239Z,10.3
2022-10-31T13:16:13.525Z,10.3
2022-10-31T13:17:18.115Z,10.1
2022-10-31T13:18:32.666Z,10.3
2022-10-31T13:19:44.931Z,10.1
2022-10-31T13:20:52.984Z,10.3
2022-10-31T13:21:53.140Z,10.1
2022-10-31T13:22:57.280Z,10
2022-10-31T13:24:07.354Z,10.4
2022-10-31T13:25:11.624Z,9.9
2022-10-31T13:26:21.323Z,9.7
2022-10-31T13:27:28.691Z,10.4
2022-10-31T13:28:38.004Z,9.4
2022-10-31T13:29:42.507Z,9.6
2022-10-31T13:30:54.831Z,10
2022-10-31T13:31:59.352Z,9.3
2022-10-31T13:33:06.406Z,9.4
2022-10-31T13:34:13.671Z,9.7
2022-10-31T13:35:28.267Z,9.3
2022-10-31T13:36:43.138Z,9.2
2022-10-31T13:37:50.957Z,9.5
2022-10-31T13:39:02.511Z,9.4
2022-10-31T13:40:17.351Z,9
2022-10-31T13:41:29.383Z,9.7
2022-10-31T13:42:39.046Z,10
2022-10-31T13:43:53.775Z,9.7
2022-10-31T13:45:00.395Z,9.4
2022-10-31T13:46:15.163Z,9.3
2022-10-31T13:47:27.468Z,9.3
2022-10-31T13:48:31.533Z,8.9
2022-10-31T13:49:35.538Z,8.7
2022-10-31T13:50:39.606Z,8.6
2022-10-31T13:51:43.816Z,8.5
2022-10-31T13:52:48.332Z,9.5
2022-10-31T13:53:52.923Z,9
2022-10-31T13:54:57.040Z,9.4
2022-10-31T13:56:01.187Z,9.5
2022-10-31T13:57:10.820Z,8.8
2022-10-31T13:58:20.468Z,9.2
2022-10-31T13:59:27.571Z,9
2022-10-31T14:00:31.663Z,9.4
2022-10-31T14:01:36.394Z,9.7
2022-10-31T14:02:40.323Z,9.4
2022-10-31T14:04:49.510Z,9.3
2022-10-31T14:05:56.495Z,9.1
2022-10-31T14:07:00.618Z,9.7
2022-10-31T14:08:10.964Z,9
2022-10-31T14:09:17.998Z,9.1
2022-10-31T14:10:22.160Z,8.7
2022-10-31T14:11:36.344Z,9
2022-10-31T14:12:39.342Z,8.7
2022-10-31T14:13:43.821Z,9
2022-10-31T14:14:47.939Z,8.9
2022-10-31T14:15:51.987Z,8.3
2022-10-31T14:17:01.688Z,8.7
2022-10-31T14:18:05.770Z,9.7
2022-10-31T14:19:09.858Z,8.8
2022-10-31T14:20:19.426Z,8.4
2022-10-31T14:21:31.654Z,8.4
2022-10-31T14:22:42.553Z,9.1
2022-10-31T14:23:42.935Z,11.9
2022-10-31T14:24:47.431Z,11.2
2022-10-31T14:25:51.623Z,35.9
2022-10-31T14:26:56.103Z,99.2
2022-10-31T14:28:00.622Z,147.4
2022-10-31T14:29:04.313Z,574.8
2022-10-31T14:30:16.561Z,550.5
2022-10-31T14:31:21.227Z,463.7
2022-10-31T14:32:30.755Z,341.3
2022-10-31T14:33:34.877Z,386.4
2022-10-31T14:34:38.956Z,391.9
2022-10-31T14:35:42.998Z,460.1
2022-10-31T14:36:55.255Z,442.5
2022-10-31T14:38:09.974Z,454
2022-10-31T14:39:17.320Z,404.8
2022-10-31T14:40:29.367Z,330
2022-10-31T14:41:39.071Z,300.2
2022-10-31T14:42:53.793Z,290.6
2022-10-31T14:44:08.580Z,232.1
2022-10-31T14:45:13.106Z,249.6
2022-10-31T14:46:22.778Z,238.7
2022-10-31T14:47:37.533Z,205.9
2022-10-31T14:48:47.275Z,175.2
2022-10-31T14:49:57.310Z,154.2
2022-10-31T14:51:07.564Z,145.7
2022-10-31T14:52:12.043Z,102.6
2022-10-31T14:53:16.235Z,84.8
2022-10-31T14:54:28.870Z,69.9
2022-10-31T14:55:36.070Z,62.9
2022-10-31T14:56:40.232Z,50.5
2022-10-31T14:57:52.462Z,46.1
2022-10-31T14:59:02.136Z,43.3